Gettysburg, SD

05:09 CST le 03 Mars 2015 (GMT -0600)
Aberdeen Regional | Change Station
CLOSE
Current Station
Aéroport
Location: Aberdeen,
Altitude: 1299 ft
Stations météo à proximité
Avis météorologiques actifs: Winter Weather Advisory

Alt. 1299 ft 45.44 °N, 98.41 °W | Updated 16 minutes ago

Neige
Neige
21 ° F
Paraît 4 ° F
N
26
Vent Variable Vent de Nord

Aujourd'hui
Haut(e) -- | Bas -- ° F
--% Risque de précip.
Hier
Haut(e) -- | Bas -- ° F
Precip. -- pouce
7:14 AM 6:29 PM
Lune gibbeuse croissante, 95% visible
Pression 29.79 pouce
Visibilité 1.0 Miles terrestres
Nuages
Refroidissement éolien 4 ° F
Point de rosée 16 ° F
Humidité 81%
Précipitations 0.07 pouce
Profondeur de la couche neigeuse Non disponible.
UV Non disponible.
Pollen .40 sur 12
Qualité de l'air Non disponible.
Flu Activity Non disponible.
METAR KABR 031053Z AUTO 36023KT 1SM -SN VV017 M06/M09 A2974 RMK AO2 PK WND 36035/1012 SLP087 P0000 T10611089

More Conditions Fewer Conditions

Pression 29.79 pouce
Visibilité 1.0 Miles terrestres
Nuages
Refroidissement éolien 4 ° F
Point de rosée 16 ° F
Humidité 81%
Précipitations 0.07 pouce
Profondeur de la couche neigeuse Non disponible.
UV Non disponible.
Pollen .40 sur 12
Qualité de l'air Non disponible.
Flu Activity Non disponible.
METAR KABR 031053Z AUTO 36023KT 1SM -SN VV017 M06/M09 A2974 RMK AO2 PK WND 36035/1012 SLP087 P0000 T10611089

More Conditions Fewer Conditions

10-Day Weather Forecast

Almanac

Astronomie

Mar. 03, 2015 Lever Coucher
Temps réel
Crépuscule civil
Crépuscule nautique
Crépuscule astronomique
Lune
Durée de lumière visible
Longueur du jour
Tomorrow will be .
, % of the Moon is Illuminated

Extrêmes aujourd'hui

State Highs State Lows

Community

WunderPhotos

Upload Photos

1,802,087 Photos téléchargées !

WunderBlogs® & News

Nearby

Qualité de l'air

  Qualité de l'air Indice de la qualité de l'air Polluant
Not available.

Épaisseur de neige

Station Depth Altitude

Activité sismique

Ville Distance Mag. Time & Date
Minimum magnitude displayed is 2.5.

Températures des eaux côtières

Lieu Température

Stations météo à proximité

Winter Weather Advisory
Statement as of 02:38 MST le 03 Mars 2015

... Winter Weather Advisory remains in effect until noon CST
/11 am MST/ today...

* timing... light snow and blowing snow will persist through the
morning hours.

* Winds/visibility... north to northwest winds of 25 to 35 mph
with gusts to 45 mph may produce visibility of one half mile
or less in falling and blowing snow.

* Snow/ice accumulations... one half inch to 2 inches of snow.

Precautionary/preparedness actions...

A Winter Weather Advisory for snow and blowing snow means that
visibility will be limited due to a combination of falling and
blowing snow. Use caution when traveling... especially in open
areas.